sensor_id;sensor_type;location;lat;lon;timestamp;P1;durP1;ratioP1;P2;durP2;ratioP2
70663;SDS011;58237;57.996;56.290;2024-03-29T00:01:39;4.15;;;1.60;;
70663;SDS011;58237;57.996;56.290;2024-03-29T00:04:05;3.55;;;1.73;;
70663;SDS011;58237;57.996;56.290;2024-03-29T00:06:31;4.63;;;1.73;;
70663;SDS011;58237;57.996;56.290;2024-03-29T00:08:56;5.72;;;1.83;;
70663;SDS011;58237;57.996;56.290;2024-03-29T00:11:22;7.68;;;2.65;;
70663;SDS011;58237;57.996;56.290;2024-03-29T00:13:47;4.22;;;2.15;;
70663;SDS011;58237;57.996;56.290;2024-03-29T00:16:13;4.65;;;1.45;;
70663;SDS011;58237;57.996;56.290;2024-03-29T00:18:39;4.57;;;1.92;;
70663;SDS011;58237;57.996;56.290;2024-03-29T00:21:04;5.75;;;1.95;;
70663;SDS011;58237;57.996;56.290;2024-03-29T00:23:30;5.90;;;1.95;;
70663;SDS011;58237;57.996;56.290;2024-03-29T00:25:55;6.45;;;2.10;;
70663;SDS011;58237;57.996;56.290;2024-03-29T00:28:24;4.60;;;1.80;;
70663;SDS011;58237;57.996;56.290;2024-03-29T00:30:51;7.32;;;2.42;;
70663;SDS011;58237;57.996;56.290;2024-03-29T00:33:17;8.65;;;2.17;;
70663;SDS011;58237;57.996;56.290;2024-03-29T00:35:42;4.35;;;1.70;;
70663;SDS011;58237;57.996;56.290;2024-03-29T00:38:08;5.30;;;2.00;;
70663;SDS011;58237;57.996;56.290;2024-03-29T00:40:35;6.45;;;2.22;;
70663;SDS011;58237;57.996;56.290;2024-03-29T00:43:01;5.05;;;1.55;;
70663;SDS011;58237;57.996;56.290;2024-03-29T00:45:27;4.90;;;1.70;;
70663;SDS011;58237;57.996;56.290;2024-03-29T00:47:53;6.75;;;2.33;;
70663;SDS011;58237;57.996;56.290;2024-03-29T00:50:19;4.20;;;1.92;;
70663;SDS011;58237;57.996;56.290;2024-03-29T00:52:45;4.95;;;1.90;;
70663;SDS011;58237;57.996;56.290;2024-03-29T00:55:13;6.50;;;1.80;;
70663;SDS011;58237;57.996;56.290;2024-03-29T00:57:39;5.00;;;1.63;;
70663;SDS011;58237;57.996;56.290;2024-03-29T01:00:05;4.63;;;1.60;;
70663;SDS011;58237;57.996;56.290;2024-03-29T01:02:31;2.63;;;1.17;;
70663;SDS011;58237;57.996;56.290;2024-03-29T01:04:56;4.20;;;1.48;;
70663;SDS011;58237;57.996;56.290;2024-03-29T01:07:22;3.83;;;1.80;;
70663;SDS011;58237;57.996;56.290;2024-03-29T01:09:47;4.80;;;1.63;;
70663;SDS011;58237;57.996;56.290;2024-03-29T01:12:13;5.13;;;1.73;;
70663;SDS011;58237;57.996;56.290;2024-03-29T01:14:39;4.88;;;1.58;;
70663;SDS011;58237;57.996;56.290;2024-03-29T01:17:04;3.35;;;1.55;;
70663;SDS011;58237;57.996;56.290;2024-03-29T01:19:32;4.18;;;1.30;;
70663;SDS011;58237;57.996;56.290;2024-03-29T01:21:57;4.70;;;1.73;;
70663;SDS011;58237;57.996;56.290;2024-03-29T01:24:23;3.00;;;1.30;;
70663;SDS011;58237;57.996;56.290;2024-03-29T01:26:49;4.78;;;1.35;;
70663;SDS011;58237;57.996;56.290;2024-03-29T01:29:15;3.78;;;1.35;;
70663;SDS011;58237;57.996;56.290;2024-03-29T01:31:40;4.93;;;1.52;;
70663;SDS011;58237;57.996;56.290;2024-03-29T01:34:06;4.50;;;1.48;;
70663;SDS011;58237;57.996;56.290;2024-03-29T01:36:31;3.65;;;1.42;;
70663;SDS011;58237;57.996;56.290;2024-03-29T01:38:57;3.85;;;1.40;;
70663;SDS011;58237;57.996;56.290;2024-03-29T01:41:24;4.40;;;1.35;;
70663;SDS011;58237;57.996;56.290;2024-03-29T01:43:52;2.95;;;1.20;;
70663;SDS011;58237;57.996;56.290;2024-03-29T01:46:18;5.97;;;2.08;;
70663;SDS011;58237;57.996;56.290;2024-03-29T01:48:44;5.00;;;1.50;;
70663;SDS011;58237;57.996;56.290;2024-03-29T01:51:10;5.00;;;1.40;;
70663;SDS011;58237;57.996;56.290;2024-03-29T01:53:37;6.63;;;2.28;;
70663;SDS011;58237;57.996;56.290;2024-03-29T01:56:02;3.22;;;1.25;;
70663;SDS011;58237;57.996;56.290;2024-03-29T01:58:29;6.75;;;1.98;;
70663;SDS011;58237;57.996;56.290;2024-03-29T02:00:57;3.65;;;1.23;;
70663;SDS011;58237;57.996;56.290;2024-03-29T02:03:23;2.88;;;1.30;;
70663;SDS011;58237;57.996;56.290;2024-03-29T02:05:48;4.10;;;1.70;;
70663;SDS011;58237;57.996;56.290;2024-03-29T02:08:14;7.32;;;2.40;;
70663;SDS011;58237;57.996;56.290;2024-03-29T02:10:40;4.22;;;1.75;;
70663;SDS011;58237;57.996;56.290;2024-03-29T02:13:06;6.15;;;2.20;;
70663;SDS011;58237;57.996;56.290;2024-03-29T02:15:32;4.28;;;1.48;;
70663;SDS011;58237;57.996;56.290;2024-03-29T02:17:58;6.13;;;1.75;;
70663;SDS011;58237;57.996;56.290;2024-03-29T02:20:24;6.13;;;1.90;;
70663;SDS011;58237;57.996;56.290;2024-03-29T02:22:53;6.00;;;2.10;;
70663;SDS011;58237;57.996;56.290;2024-03-29T02:25:19;3.95;;;1.88;;
70663;SDS011;58237;57.996;56.290;2024-03-29T02:27:47;3.83;;;1.73;;
70663;SDS011;58237;57.996;56.290;2024-03-29T02:30:15;4.22;;;1.73;;
70663;SDS011;58237;57.996;56.290;2024-03-29T02:32:41;3.40;;;1.40;;
70663;SDS011;58237;57.996;56.290;2024-03-29T02:35:07;3.90;;;1.70;;
70663;SDS011;58237;57.996;56.290;2024-03-29T02:37:34;5.07;;;1.73;;
70663;SDS011;58237;57.996;56.290;2024-03-29T02:40:00;3.42;;;1.50;;
70663;SDS011;58237;57.996;56.290;2024-03-29T02:42:26;5.82;;;2.00;;
70663;SDS011;58237;57.996;56.290;2024-03-29T02:44:51;5.25;;;1.52;;
70663;SDS011;58237;57.996;56.290;2024-03-29T02:47:17;3.53;;;1.42;;
70663;SDS011;58237;57.996;56.290;2024-03-29T02:49:43;3.53;;;1.40;;
70663;SDS011;58237;57.996;56.290;2024-03-29T02:52:09;4.60;;;1.70;;
70663;SDS011;58237;57.996;56.290;2024-03-29T02:54:34;5.20;;;1.67;;
70663;SDS011;58237;57.996;56.290;2024-03-29T02:57:00;3.95;;;1.73;;
70663;SDS011;58237;57.996;56.290;2024-03-29T02:59:26;5.68;;;1.52;;
70663;SDS011;58237;57.996;56.290;2024-03-29T03:01:51;6.15;;;1.77;;
70663;SDS011;58237;57.996;56.290;2024-03-29T03:04:17;2.97;;;1.40;;
70663;SDS011;58237;57.996;56.290;2024-03-29T03:06:42;3.28;;;1.95;;
70663;SDS011;58237;57.996;56.290;2024-03-29T03:09:08;6.53;;;2.20;;
70663;SDS011;58237;57.996;56.290;2024-03-29T03:14:17;8.13;;;2.08;;
70663;SDS011;58237;57.996;56.290;2024-03-29T03:16:43;6.35;;;2.13;;
70663;SDS011;58237;57.996;56.290;2024-03-29T03:19:09;5.88;;;2.60;;
70663;SDS011;58237;57.996;56.290;2024-03-29T03:21:35;8.43;;;2.90;;
70663;SDS011;58237;57.996;56.290;2024-03-29T03:24:00;6.72;;;2.33;;
70663;SDS011;58237;57.996;56.290;2024-03-29T03:26:26;9.10;;;3.58;;
70663;SDS011;58237;57.996;56.290;2024-03-29T03:28:52;8.27;;;2.53;;
70663;SDS011;58237;57.996;56.290;2024-03-29T03:31:17;5.22;;;2.05;;
70663;SDS011;58237;57.996;56.290;2024-03-29T03:33:43;6.60;;;1.85;;
70663;SDS011;58237;57.996;56.290;2024-03-29T03:36:09;3.90;;;1.75;;
70663;SDS011;58237;57.996;56.290;2024-03-29T03:38:34;11.18;;;2.40;;
70663;SDS011;58237;57.996;56.290;2024-03-29T03:41:02;10.35;;;2.78;;
70663;SDS011;58237;57.996;56.290;2024-03-29T03:43:27;12.10;;;3.13;;
70663;SDS011;58237;57.996;56.290;2024-03-29T03:45:53;8.75;;;2.15;;
70663;SDS011;58237;57.996;56.290;2024-03-29T03:48:18;5.78;;;2.00;;
70663;SDS011;58237;57.996;56.290;2024-03-29T03:50:44;7.45;;;2.60;;
70663;SDS011;58237;57.996;56.290;2024-03-29T03:53:10;7.82;;;2.70;;
70663;SDS011;58237;57.996;56.290;2024-03-29T03:55:38;7.43;;;1.95;;
70663;SDS011;58237;57.996;56.290;2024-03-29T03:58:04;7.28;;;2.08;;
70663;SDS011;58237;57.996;56.290;2024-03-29T04:00:30;5.30;;;2.20;;
70663;SDS011;58237;57.996;56.290;2024-03-29T04:02:55;6.78;;;2.17;;
70663;SDS011;58237;57.996;56.290;2024-03-29T04:05:22;9.77;;;3.15;;
70663;SDS011;58237;57.996;56.290;2024-03-29T04:07:48;10.15;;;3.13;;
70663;SDS011;58237;57.996;56.290;2024-03-29T04:10:13;6.88;;;2.75;;
70663;SDS011;58237;57.996;56.290;2024-03-29T04:12:39;14.38;;;4.07;;
70663;SDS011;58237;57.996;56.290;2024-03-29T04:15:05;6.18;;;2.10;;
70663;SDS011;58237;57.996;56.290;2024-03-29T04:17:31;7.07;;;2.28;;
70663;SDS011;58237;57.996;56.290;2024-03-29T04:19:57;6.28;;;1.80;;
70663;SDS011;58237;57.996;56.290;2024-03-29T04:22:23;4.05;;;1.20;;
70663;SDS011;58237;57.996;56.290;2024-03-29T04:24:49;9.82;;;2.22;;
70663;SDS011;58237;57.996;56.290;2024-03-29T04:27:15;5.05;;;2.03;;
70663;SDS011;58237;57.996;56.290;2024-03-29T04:29:40;6.93;;;2.53;;
70663;SDS011;58237;57.996;56.290;2024-03-29T04:32:06;8.23;;;2.05;;
70663;SDS011;58237;57.996;56.290;2024-03-29T04:34:32;4.38;;;1.50;;
70663;SDS011;58237;57.996;56.290;2024-03-29T04:36:58;6.63;;;2.17;;
70663;SDS011;58237;57.996;56.290;2024-03-29T04:39:24;6.70;;;1.88;;
70663;SDS011;58237;57.996;56.290;2024-03-29T04:41:49;6.75;;;2.08;;
70663;SDS011;58237;57.996;56.290;2024-03-29T04:44:23;7.88;;;2.85;;
70663;SDS011;58237;57.996;56.290;2024-03-29T04:46:49;14.52;;;5.25;;
70663;SDS011;58237;57.996;56.290;2024-03-29T04:49:15;8.38;;;3.00;;
70663;SDS011;58237;57.996;56.290;2024-03-29T04:51:43;7.60;;;2.17;;
70663;SDS011;58237;57.996;56.290;2024-03-29T04:54:08;5.13;;;2.10;;
70663;SDS011;58237;57.996;56.290;2024-03-29T04:56:34;6.85;;;1.92;;
70663;SDS011;58237;57.996;56.290;2024-03-29T04:59:01;4.10;;;1.70;;
70663;SDS011;58237;57.996;56.290;2024-03-29T05:01:28;4.25;;;1.35;;
70663;SDS011;58237;57.996;56.290;2024-03-29T05:03:53;6.03;;;1.73;;
70663;SDS011;58237;57.996;56.290;2024-03-29T05:06:19;4.80;;;2.00;;
70663;SDS011;58237;57.996;56.290;2024-03-29T05:08:45;6.22;;;2.10;;
70663;SDS011;58237;57.996;56.290;2024-03-29T05:11:11;5.20;;;2.10;;
70663;SDS011;58237;57.996;56.290;2024-03-29T05:13:39;4.45;;;1.70;;
70663;SDS011;58237;57.996;56.290;2024-03-29T05:16:05;4.00;;;1.30;;
70663;SDS011;58237;57.996;56.290;2024-03-29T05:18:31;9.55;;;2.05;;
70663;SDS011;58237;57.996;56.290;2024-03-29T05:20:57;6.43;;;2.33;;
70663;SDS011;58237;57.996;56.290;2024-03-29T05:23:22;5.90;;;1.90;;
70663;SDS011;58237;57.996;56.290;2024-03-29T05:25:48;5.32;;;1.98;;
70663;SDS011;58237;57.996;56.290;2024-03-29T05:28:14;6.93;;;2.38;;
70663;SDS011;58237;57.996;56.290;2024-03-29T05:30:40;6.90;;;2.78;;
70663;SDS011;58237;57.996;56.290;2024-03-29T05:33:06;6.15;;;2.08;;
70663;SDS011;58237;57.996;56.290;2024-03-29T05:35:32;6.70;;;1.85;;
70663;SDS011;58237;57.996;56.290;2024-03-29T05:37:58;6.07;;;1.77;;
70663;SDS011;58237;57.996;56.290;2024-03-29T05:40:24;4.32;;;1.58;;
70663;SDS011;58237;57.996;56.290;2024-03-29T05:42:53;3.97;;;1.48;;
70663;SDS011;58237;57.996;56.290;2024-03-29T05:45:23;2.85;;;1.13;;
70663;SDS011;58237;57.996;56.290;2024-03-29T05:47:50;3.70;;;1.50;;
70663;SDS011;58237;57.996;56.290;2024-03-29T05:50:16;3.40;;;1.35;;
70663;SDS011;58237;57.996;56.290;2024-03-29T05:52:41;4.40;;;1.55;;
70663;SDS011;58237;57.996;56.290;2024-03-29T05:55:07;4.82;;;1.73;;
70663;SDS011;58237;57.996;56.290;2024-03-29T05:57:35;4.80;;;1.58;;
70663;SDS011;58237;57.996;56.290;2024-03-29T06:00:04;4.60;;;1.90;;
70663;SDS011;58237;57.996;56.290;2024-03-29T06:02:30;3.50;;;1.50;;
70663;SDS011;58237;57.996;56.290;2024-03-29T06:04:56;2.92;;;1.30;;
70663;SDS011;58237;57.996;56.290;2024-03-29T06:07:21;4.80;;;1.48;;
70663;SDS011;58237;57.996;56.290;2024-03-29T06:09:47;6.00;;;1.88;;
70663;SDS011;58237;57.996;56.290;2024-03-29T06:12:13;5.30;;;1.73;;
70663;SDS011;58237;57.996;56.290;2024-03-29T06:14:38;5.53;;;2.03;;
70663;SDS011;58237;57.996;56.290;2024-03-29T06:17:22;4.40;;;1.70;;
70663;SDS011;58237;57.996;56.290;2024-03-29T06:19:51;4.82;;;1.30;;
70663;SDS011;58237;57.996;56.290;2024-03-29T06:22:20;7.53;;;2.15;;
70663;SDS011;58237;57.996;56.290;2024-03-29T06:24:46;4.18;;;1.90;;
70663;SDS011;58237;57.996;56.290;2024-03-29T06:27:12;4.30;;;1.65;;
70663;SDS011;58237;57.996;56.290;2024-03-29T06:29:41;5.70;;;2.00;;
70663;SDS011;58237;57.996;56.290;2024-03-29T06:32:07;4.30;;;1.70;;
70663;SDS011;58237;57.996;56.290;2024-03-29T06:34:33;6.50;;;2.30;;
70663;SDS011;58237;57.996;56.290;2024-03-29T06:36:58;5.50;;;2.08;;
70663;SDS011;58237;57.996;56.290;2024-03-29T06:39:24;6.90;;;2.25;;
70663;SDS011;58237;57.996;56.290;2024-03-29T06:41:51;14.30;;;2.90;;
70663;SDS011;58237;57.996;56.290;2024-03-29T06:44:17;5.85;;;2.13;;
70663;SDS011;58237;57.996;56.290;2024-03-29T06:46:42;4.57;;;2.03;;
70663;SDS011;58237;57.996;56.290;2024-03-29T06:49:08;5.97;;;2.10;;
70663;SDS011;58237;57.996;56.290;2024-03-29T06:51:34;3.80;;;1.77;;
70663;SDS011;58237;57.996;56.290;2024-03-29T06:54:00;4.60;;;1.83;;
70663;SDS011;58237;57.996;56.290;2024-03-29T06:56:25;6.93;;;2.10;;
70663;SDS011;58237;57.996;56.290;2024-03-29T06:58:51;5.47;;;1.85;;
70663;SDS011;58237;57.996;56.290;2024-03-29T07:01:16;6.90;;;2.55;;
70663;SDS011;58237;57.996;56.290;2024-03-29T07:03:42;6.03;;;1.70;;
70663;SDS011;58237;57.996;56.290;2024-03-29T07:06:08;5.15;;;1.83;;
70663;SDS011;58237;57.996;56.290;2024-03-29T07:08:33;4.65;;;1.25;;
70663;SDS011;58237;57.996;56.290;2024-03-29T07:10:59;5.07;;;2.00;;
70663;SDS011;58237;57.996;56.290;2024-03-29T07:13:27;4.05;;;1.27;;
70663;SDS011;58237;57.996;56.290;2024-03-29T07:15:52;7.07;;;2.10;;
70663;SDS011;58237;57.996;56.290;2024-03-29T07:18:18;6.60;;;2.10;;
70663;SDS011;58237;57.996;56.290;2024-03-29T07:20:44;6.28;;;2.17;;
70663;SDS011;58237;57.996;56.290;2024-03-29T07:23:09;3.83;;;1.50;;
70663;SDS011;58237;57.996;56.290;2024-03-29T07:25:37;4.63;;;1.52;;
70663;SDS011;58237;57.996;56.290;2024-03-29T07:28:02;3.75;;;1.75;;
70663;SDS011;58237;57.996;56.290;2024-03-29T07:30:28;4.15;;;1.92;;
70663;SDS011;58237;57.996;56.290;2024-03-29T07:32:54;5.72;;;1.92;;
70663;SDS011;58237;57.996;56.290;2024-03-29T07:35:19;5.38;;;1.80;;
70663;SDS011;58237;57.996;56.290;2024-03-29T07:37:45;3.13;;;1.33;;
70663;SDS011;58237;57.996;56.290;2024-03-29T07:40:13;5.88;;;1.73;;
70663;SDS011;58237;57.996;56.290;2024-03-29T07:42:39;2.78;;;1.23;;
70663;SDS011;58237;57.996;56.290;2024-03-29T07:45:04;5.43;;;1.40;;
70663;SDS011;58237;57.996;56.290;2024-03-29T07:47:30;3.50;;;1.10;;
70663;SDS011;58237;57.996;56.290;2024-03-29T07:49:56;5.72;;;1.70;;
70663;SDS011;58237;57.996;56.290;2024-03-29T07:52:21;3.80;;;1.40;;
70663;SDS011;58237;57.996;56.290;2024-03-29T07:54:47;3.70;;;1.17;;
70663;SDS011;58237;57.996;56.290;2024-03-29T07:57:13;2.38;;;1.10;;
70663;SDS011;58237;57.996;56.290;2024-03-29T07:59:41;4.57;;;1.40;;
70663;SDS011;58237;57.996;56.290;2024-03-29T08:02:07;2.22;;;0.90;;
70663;SDS011;58237;57.996;56.290;2024-03-29T08:04:32;3.60;;;1.60;;
70663;SDS011;58237;57.996;56.290;2024-03-29T08:06:58;3.10;;;1.27;;
70663;SDS011;58237;57.996;56.290;2024-03-29T08:09:24;4.28;;;1.20;;
70663;SDS011;58237;57.996;56.290;2024-03-29T08:11:50;2.58;;;1.15;;
70663;SDS011;58237;57.996;56.290;2024-03-29T08:14:16;2.55;;;1.10;;
70663;SDS011;58237;57.996;56.290;2024-03-29T08:16:41;2.30;;;1.10;;
70663;SDS011;58237;57.996;56.290;2024-03-29T08:19:08;2.95;;;0.80;;
70663;SDS011;58237;57.996;56.290;2024-03-29T08:21:33;5.38;;;1.15;;
70663;SDS011;58237;57.996;56.290;2024-03-29T08:23:59;4.72;;;1.45;;
70663;SDS011;58237;57.996;56.290;2024-03-29T08:26:26;4.43;;;1.52;;
70663;SDS011;58237;57.996;56.290;2024-03-29T08:28:54;4.93;;;1.40;;
70663;SDS011;58237;57.996;56.290;2024-03-29T08:31:19;3.97;;;1.30;;
70663;SDS011;58237;57.996;56.290;2024-03-29T08:33:45;4.07;;;1.38;;
70663;SDS011;58237;57.996;56.290;2024-03-29T08:36:11;4.00;;;1.42;;
70663;SDS011;58237;57.996;56.290;2024-03-29T08:38:39;3.35;;;1.10;;
70663;SDS011;58237;57.996;56.290;2024-03-29T08:41:08;4.15;;;1.27;;
70663;SDS011;58237;57.996;56.290;2024-03-29T08:43:34;3.95;;;1.77;;
70663;SDS011;58237;57.996;56.290;2024-03-29T08:45:59;2.63;;;1.00;;
70663;SDS011;58237;57.996;56.290;2024-03-29T08:48:26;3.20;;;1.20;;
70663;SDS011;58237;57.996;56.290;2024-03-29T08:50:52;2.60;;;1.20;;
70663;SDS011;58237;57.996;56.290;2024-03-29T08:53:17;5.68;;;1.77;;
70663;SDS011;58237;57.996;56.290;2024-03-29T08:55:45;4.45;;;1.63;;
70663;SDS011;58237;57.996;56.290;2024-03-29T08:58:11;5.57;;;1.52;;
70663;SDS011;58237;57.996;56.290;2024-03-29T09:00:37;5.03;;;1.90;;
70663;SDS011;58237;57.996;56.290;2024-03-29T09:03:02;4.43;;;1.52;;
70663;SDS011;58237;57.996;56.290;2024-03-29T09:05:28;6.22;;;2.00;;
70663;SDS011;58237;57.996;56.290;2024-03-29T09:07:54;6.07;;;1.65;;
70663;SDS011;58237;57.996;56.290;2024-03-29T09:10:21;4.90;;;1.92;;
70663;SDS011;58237;57.996;56.290;2024-03-29T09:12:47;4.72;;;1.80;;
70663;SDS011;58237;57.996;56.290;2024-03-29T09:15:13;5.22;;;1.52;;
70663;SDS011;58237;57.996;56.290;2024-03-29T09:17:39;3.70;;;1.20;;
70663;SDS011;58237;57.996;56.290;2024-03-29T09:20:06;4.00;;;1.30;;
70663;SDS011;58237;57.996;56.290;2024-03-29T09:22:31;5.03;;;1.98;;
70663;SDS011;58237;57.996;56.290;2024-03-29T09:24:57;3.33;;;1.50;;
70663;SDS011;58237;57.996;56.290;2024-03-29T09:27:23;6.63;;;1.67;;
70663;SDS011;58237;57.996;56.290;2024-03-29T09:29:48;6.30;;;1.88;;
70663;SDS011;58237;57.996;56.290;2024-03-29T09:32:14;7.40;;;3.72;;
70663;SDS011;58237;57.996;56.290;2024-03-29T09:34:43;5.32;;;1.63;;
70663;SDS011;58237;57.996;56.290;2024-03-29T09:37:09;6.57;;;1.52;;
70663;SDS011;58237;57.996;56.290;2024-03-29T09:39:35;5.53;;;1.80;;
70663;SDS011;58237;57.996;56.290;2024-03-29T09:42:01;7.20;;;2.03;;
70663;SDS011;58237;57.996;56.290;2024-03-29T09:44:27;5.97;;;2.30;;
70663;SDS011;58237;57.996;56.290;2024-03-29T09:46:57;5.15;;;1.98;;
70663;SDS011;58237;57.996;56.290;2024-03-29T09:49:25;8.10;;;2.42;;
70663;SDS011;58237;57.996;56.290;2024-03-29T09:51:50;8.13;;;2.35;;
70663;SDS011;58237;57.996;56.290;2024-03-29T09:54:16;6.15;;;1.92;;
70663;SDS011;58237;57.996;56.290;2024-03-29T09:56:42;5.65;;;1.40;;
70663;SDS011;58237;57.996;56.290;2024-03-29T09:59:08;3.25;;;1.30;;
70663;SDS011;58237;57.996;56.290;2024-03-29T10:01:34;5.97;;;1.52;;
70663;SDS011;58237;57.996;56.290;2024-03-29T10:04:00;4.05;;;1.33;;
70663;SDS011;58237;57.996;56.290;2024-03-29T10:06:27;4.50;;;1.40;;
70663;SDS011;58237;57.996;56.290;2024-03-29T10:08:54;2.63;;;1.00;;
70663;SDS011;58237;57.996;56.290;2024-03-29T10:11:23;2.97;;;1.15;;
70663;SDS011;58237;57.996;56.290;2024-03-29T10:13:50;3.45;;;1.50;;
70663;SDS011;58237;57.996;56.290;2024-03-29T10:16:18;5.43;;;1.30;;
70663;SDS011;58237;57.996;56.290;2024-03-29T10:18:47;4.97;;;1.60;;
70663;SDS011;58237;57.996;56.290;2024-03-29T10:21:13;3.58;;;1.17;;
70663;SDS011;58237;57.996;56.290;2024-03-29T10:23:38;3.58;;;1.30;;
70663;SDS011;58237;57.996;56.290;2024-03-29T10:26:05;5.22;;;1.70;;
70663;SDS011;58237;57.996;56.290;2024-03-29T10:28:35;6.15;;;1.33;;
70663;SDS011;58237;57.996;56.290;2024-03-29T10:31:02;1.83;;;0.90;;
70663;SDS011;58237;57.996;56.290;2024-03-29T10:33:32;1.65;;;0.77;;
70663;SDS011;58237;57.996;56.290;2024-03-29T10:36:01;2.28;;;0.90;;
70663;SDS011;58237;57.996;56.290;2024-03-29T10:38:30;1.58;;;0.60;;
70663;SDS011;58237;57.996;56.290;2024-03-29T10:40:55;2.70;;;0.85;;
70663;SDS011;58237;57.996;56.290;2024-03-29T10:43:21;3.60;;;0.80;;
70663;SDS011;58237;57.996;56.290;2024-03-29T10:45:47;4.15;;;1.10;;
70663;SDS011;58237;57.996;56.290;2024-03-29T10:48:14;5.47;;;1.60;;
70663;SDS011;58237;57.996;56.290;2024-03-29T10:50:41;3.97;;;1.00;;
70663;SDS011;58237;57.996;56.290;2024-03-29T10:53:08;4.28;;;0.93;;
70663;SDS011;58237;57.996;56.290;2024-03-29T10:55:34;5.05;;;0.93;;
70663;SDS011;58237;57.996;56.290;2024-03-29T10:58:00;3.40;;;0.85;;
70663;SDS011;58237;57.996;56.290;2024-03-29T11:00:27;2.35;;;1.05;;
70663;SDS011;58237;57.996;56.290;2024-03-29T11:05:49;4.78;;;0.93;;
70663;SDS011;58237;57.996;56.290;2024-03-29T11:08:16;2.15;;;0.75;;
70663;SDS011;58237;57.996;56.290;2024-03-29T11:10:45;5.72;;;1.25;;
70663;SDS011;58237;57.996;56.290;2024-03-29T11:15:44;4.22;;;1.20;;
70663;SDS011;58237;57.996;56.290;2024-03-29T11:18:10;3.45;;;1.10;;
70663;SDS011;58237;57.996;56.290;2024-03-29T11:20:37;9.40;;;1.75;;
70663;SDS011;58237;57.996;56.290;2024-03-29T11:23:08;3.75;;;1.10;;
70663;SDS011;58237;57.996;56.290;2024-03-29T11:28:06;3.35;;;1.10;;
70663;SDS011;58237;57.996;56.290;2024-03-29T11:31:21;5.47;;;1.08;;
70663;SDS011;58237;57.996;56.290;2024-03-29T11:33:34;3.97;;;1.30;;
70663;SDS011;58237;57.996;56.290;2024-03-29T11:36:06;1.33;;;0.70;;
70663;SDS011;58237;57.996;56.290;2024-03-29T11:38:34;3.05;;;1.20;;
70663;SDS011;58237;57.996;56.290;2024-03-29T11:41:01;2.97;;;0.98;;
70663;SDS011;58237;57.996;56.290;2024-03-29T11:43:26;3.30;;;1.23;;
70663;SDS011;58237;57.996;56.290;2024-03-29T11:45:54;3.15;;;0.90;;
70663;SDS011;58237;57.996;56.290;2024-03-29T11:48:23;2.65;;;1.10;;
70663;SDS011;58237;57.996;56.290;2024-03-29T11:50:52;4.00;;;1.40;;
70663;SDS011;58237;57.996;56.290;2024-03-29T11:53:19;8.18;;;1.17;;
70663;SDS011;58237;57.996;56.290;2024-03-29T11:55:44;13.25;;;1.38;;
70663;SDS011;58237;57.996;56.290;2024-03-29T11:58:10;1.98;;;0.85;;
70663;SDS011;58237;57.996;56.290;2024-03-29T12:00:37;2.92;;;1.00;;
70663;SDS011;58237;57.996;56.290;2024-03-29T12:03:04;3.20;;;0.98;;
70663;SDS011;58237;57.996;56.290;2024-03-29T12:05:30;3.05;;;1.00;;
70663;SDS011;58237;57.996;56.290;2024-03-29T12:07:56;2.20;;;0.90;;
70663;SDS011;58237;57.996;56.290;2024-03-29T12:10:26;2.22;;;0.88;;
70663;SDS011;58237;57.996;56.290;2024-03-29T12:12:55;5.68;;;1.70;;
70663;SDS011;58237;57.996;56.290;2024-03-29T12:15:22;5.22;;;1.20;;
70663;SDS011;58237;57.996;56.290;2024-03-29T12:17:58;6.20;;;1.10;;
70663;SDS011;58237;57.996;56.290;2024-03-29T12:20:24;4.47;;;1.40;;
70663;SDS011;58237;57.996;56.290;2024-03-29T12:22:50;8.43;;;1.63;;
70663;SDS011;58237;57.996;56.290;2024-03-29T12:25:16;5.05;;;1.60;;
70663;SDS011;58237;57.996;56.290;2024-03-29T12:27:43;4.72;;;1.50;;
70663;SDS011;58237;57.996;56.290;2024-03-29T12:30:09;7.55;;;1.67;;
70663;SDS011;58237;57.996;56.290;2024-03-29T12:32:35;7.63;;;2.08;;
70663;SDS011;58237;57.996;56.290;2024-03-29T12:35:15;10.80;;;2.85;;
70663;SDS011;58237;57.996;56.290;2024-03-29T12:37:48;4.85;;;1.70;;
70663;SDS011;58237;57.996;56.290;2024-03-29T12:40:17;7.97;;;2.47;;
70663;SDS011;58237;57.996;56.290;2024-03-29T12:42:49;4.80;;;1.67;;
70663;SDS011;58237;57.996;56.290;2024-03-29T12:45:16;5.50;;;1.45;;
70663;SDS011;58237;57.996;56.290;2024-03-29T12:47:42;6.95;;;2.10;;
70663;SDS011;58237;57.996;56.290;2024-03-29T12:50:07;6.03;;;1.95;;
70663;SDS011;58237;57.996;56.290;2024-03-29T12:52:39;5.45;;;1.90;;
70663;SDS011;58237;57.996;56.290;2024-03-29T12:55:06;7.95;;;1.90;;
70663;SDS011;58237;57.996;56.290;2024-03-29T12:57:33;8.13;;;2.45;;
70663;SDS011;58237;57.996;56.290;2024-03-29T13:00:00;5.20;;;1.83;;
70663;SDS011;58237;57.996;56.290;2024-03-29T13:02:26;6.50;;;2.00;;
70663;SDS011;58237;57.996;56.290;2024-03-29T13:04:52;8.30;;;2.17;;
70663;SDS011;58237;57.996;56.290;2024-03-29T13:07:17;6.47;;;1.90;;
70663;SDS011;58237;57.996;56.290;2024-03-29T13:09:43;6.80;;;1.88;;
70663;SDS011;58237;57.996;56.290;2024-03-29T13:12:09;4.85;;;1.70;;
70663;SDS011;58237;57.996;56.290;2024-03-29T13:14:34;5.95;;;1.70;;
70663;SDS011;58237;57.996;56.290;2024-03-29T13:17:00;10.45;;;2.67;;
70663;SDS011;58237;57.996;56.290;2024-03-29T13:19:26;7.28;;;1.80;;
70663;SDS011;58237;57.996;56.290;2024-03-29T13:21:51;6.53;;;1.98;;
70663;SDS011;58237;57.996;56.290;2024-03-29T13:24:17;7.13;;;1.70;;
70663;SDS011;58237;57.996;56.290;2024-03-29T13:26:43;6.32;;;1.45;;
70663;SDS011;58237;57.996;56.290;2024-03-29T13:29:09;6.80;;;1.83;;
70663;SDS011;58237;57.996;56.290;2024-03-29T13:31:38;4.75;;;1.75;;
70663;SDS011;58237;57.996;56.290;2024-03-29T13:34:04;7.88;;;1.90;;
70663;SDS011;58237;57.996;56.290;2024-03-29T13:36:40;5.80;;;2.03;;
70663;SDS011;58237;57.996;56.290;2024-03-29T13:39:05;6.13;;;1.85;;
70663;SDS011;58237;57.996;56.290;2024-03-29T13:41:33;4.13;;;1.75;;
70663;SDS011;58237;57.996;56.290;2024-03-29T13:44:00;4.60;;;1.98;;
70663;SDS011;58237;57.996;56.290;2024-03-29T13:46:33;5.90;;;1.65;;
70663;SDS011;58237;57.996;56.290;2024-03-29T13:48:59;4.03;;;1.48;;
70663;SDS011;58237;57.996;56.290;2024-03-29T13:51:25;7.95;;;2.10;;
70663;SDS011;58237;57.996;56.290;2024-03-29T13:53:51;8.43;;;2.25;;
70663;SDS011;58237;57.996;56.290;2024-03-29T13:56:17;8.68;;;1.77;;
70663;SDS011;58237;57.996;56.290;2024-03-29T13:58:42;5.40;;;2.28;;
70663;SDS011;58237;57.996;56.290;2024-03-29T14:01:08;7.60;;;1.95;;
70663;SDS011;58237;57.996;56.290;2024-03-29T14:03:34;4.35;;;1.48;;
70663;SDS011;58237;57.996;56.290;2024-03-29T14:05:59;3.65;;;1.40;;
70663;SDS011;58237;57.996;56.290;2024-03-29T14:08:25;5.35;;;1.90;;
70663;SDS011;58237;57.996;56.290;2024-03-29T14:10:51;5.97;;;1.85;;
70663;SDS011;58237;57.996;56.290;2024-03-29T14:13:19;5.55;;;1.40;;
70663;SDS011;58237;57.996;56.290;2024-03-29T14:15:44;6.50;;;1.67;;
70663;SDS011;58237;57.996;56.290;2024-03-29T14:18:10;5.35;;;1.67;;
70663;SDS011;58237;57.996;56.290;2024-03-29T14:20:35;5.15;;;1.50;;
70663;SDS011;58237;57.996;56.290;2024-03-29T14:23:01;10.27;;;1.90;;
70663;SDS011;58237;57.996;56.290;2024-03-29T14:25:34;4.60;;;1.80;;
70663;SDS011;58237;57.996;56.290;2024-03-29T14:27:59;5.72;;;1.52;;
70663;SDS011;58237;57.996;56.290;2024-03-29T14:30:27;4.82;;;1.40;;
70663;SDS011;58237;57.996;56.290;2024-03-29T14:32:54;6.63;;;1.80;;
70663;SDS011;58237;57.996;56.290;2024-03-29T14:35:19;4.40;;;1.58;;
70663;SDS011;58237;57.996;56.290;2024-03-29T14:37:46;3.90;;;1.30;;
70663;SDS011;58237;57.996;56.290;2024-03-29T14:40:12;7.57;;;1.55;;